Audubon, Illinois
Current Conditions -  °F | °C
As of 3:15 AM on Monday 22 Dec 2014 (Local Time) from KTAZ Reporting Station
Overcast Overcast  
Wind Chill: 29°   Ceiling: 4900
Heat Index: 36°   Visibility: 10mi
Dew Point: 30°   Wind: 8mph
Humidity: 81%   Direction: 110°ESE
Pressure: 29.91"   Gusts: NA
Location:  39.3183°N, 89.2952°W
Report Text: KTAZ 220915Z AUTO 11007KT 10SM OVC049 02/M01 A2991 RMK AO2
Loading
Personal Weather Stations






























Interactive Weather Map New forecast layout! Learn more

10-Day Weather Forecast

Advertisements
Track Severe Weather on mobile